createdAt,value
2022-10-12T00:02:17.366Z,23.17
2022-10-12T00:04:43.957Z,21.65
2022-10-12T00:07:10.536Z,23.58
2022-10-12T00:09:37.176Z,22.45
2022-10-12T00:12:03.929Z,21.42
2022-10-12T00:14:30.562Z,24.17
2022-10-12T00:16:57.217Z,24.05
2022-10-12T00:19:23.757Z,21.92
2022-10-12T00:21:50.325Z,23.23
2022-10-12T00:24:17.025Z,23.75
2022-10-12T00:26:43.584Z,23.52
2022-10-12T00:29:10.189Z,21.70
2022-10-12T00:31:36.773Z,22.10
2022-10-12T00:34:03.721Z,20.70
2022-10-12T00:36:32.489Z,24.65
2022-10-12T00:38:59.456Z,26.13
2022-10-12T00:41:28.431Z,24.15
2022-10-12T00:43:58.268Z,24.38
2022-10-12T00:49:16.494Z,24.60
2022-10-12T00:51:45.495Z,23.50
2022-10-12T00:54:14.128Z,23.90
2022-10-12T00:56:41.356Z,23.50
2022-10-12T00:59:10.928Z,23.52
2022-10-12T01:01:37.538Z,23.00
2022-10-12T01:04:04.282Z,22.73
2022-10-12T01:06:30.897Z,22.98
2022-10-12T01:08:57.482Z,22.63
2022-10-12T01:11:24.379Z,23.88
2022-10-12T01:13:50.989Z,22.08
2022-10-12T01:16:22.560Z,22.30
2022-10-12T01:18:58.846Z,22.75
2022-10-12T01:21:25.414Z,22.55
2022-10-12T01:27:03.806Z,22.25
2022-10-12T01:32:18.184Z,21.88
2022-10-12T01:34:53.016Z,24.10
2022-10-12T01:37:24.501Z,23.23
2022-10-12T01:39:53.755Z,22.52
2022-10-12T01:42:25.573Z,23.23
2022-10-12T01:45:03.333Z,22.57
2022-10-12T01:47:30.011Z,23.92
2022-10-12T01:49:57.814Z,23.40
2022-10-12T01:52:28.620Z,23.17
2022-10-12T01:55:05.787Z,25.00
2022-10-12T01:57:55.172Z,23.52
2022-10-12T02:00:21.792Z,26.10
2022-10-12T02:05:51.960Z,25.75
2022-10-12T02:08:23.600Z,29.87
2022-10-12T02:11:02.383Z,26.90
2022-10-12T02:13:30.378Z,28.90
2022-10-12T02:15:57.131Z,27.30
2022-10-12T02:18:23.767Z,27.17
2022-10-12T02:20:51.942Z,28.73
2022-10-12T02:23:18.615Z,28.63
2022-10-12T02:25:46.136Z,30.35
2022-10-12T02:28:15.815Z,30.92
2022-10-12T02:30:49.625Z,30.85
2022-10-12T02:33:24.752Z,29.70
2022-10-12T02:35:54.716Z,32.75
2022-10-12T02:38:39.513Z,32.13
2022-10-12T02:41:12.010Z,32.15
2022-10-12T02:43:42.153Z,33.92
2022-10-12T02:46:09.476Z,32.00
2022-10-12T02:48:36.679Z,33.60
2022-10-12T02:51:03.424Z,33.17
2022-10-12T02:53:30.070Z,32.20
2022-10-12T02:56:02.860Z,34.63
2022-10-12T03:00:56.100Z,33.20
2022-10-12T03:03:22.791Z,31.80
2022-10-12T03:05:49.483Z,32.15
2022-10-12T03:08:16.077Z,33.92
2022-10-12T03:10:42.646Z,33.35
2022-10-12T03:13:09.246Z,32.55
2022-10-12T03:15:35.814Z,31.52
2022-10-12T03:18:02.420Z,32.38
2022-10-12T03:20:28.982Z,30.88
2022-10-12T03:22:55.586Z,33.08
2022-10-12T03:25:22.292Z,31.23
2022-10-12T03:27:48.891Z,34.78
2022-10-12T03:30:15.577Z,32.80
2022-10-12T03:32:42.165Z,31.30
2022-10-12T03:35:09.133Z,32.25
2022-10-12T03:37:35.911Z,30.25
2022-10-12T03:40:02.777Z,34.05
2022-10-12T03:42:29.344Z,35.67
2022-10-12T03:44:55.926Z,34.53
2022-10-12T03:47:22.561Z,35.40
2022-10-12T03:49:49.179Z,34.00
2022-10-12T03:52:15.811Z,33.75
2022-10-12T03:54:42.397Z,35.25
2022-10-12T03:57:09.007Z,35.75
2022-10-12T03:59:35.580Z,33.08
2022-10-12T04:02:02.203Z,38.63
2022-10-12T04:04:28.817Z,37.60
2022-10-12T04:06:55.437Z,39.17
2022-10-12T04:09:22.026Z,38.67
2022-10-12T04:11:48.646Z,35.95
2022-10-12T04:14:15.230Z,37.58
2022-10-12T04:16:41.890Z,36.72
2022-10-12T04:19:12.316Z,37.88
2022-10-12T04:21:39.049Z,38.15
2022-10-12T04:24:06.005Z,38.03
2022-10-12T04:26:32.622Z,38.38
2022-10-12T04:28:59.204Z,36.92
2022-10-12T04:31:25.806Z,37.83
2022-10-12T04:33:56.829Z,33.20
2022-10-12T04:36:24.433Z,37.58
2022-10-12T04:38:51.097Z,39.33
2022-10-12T04:41:17.737Z,34.45
2022-10-12T04:43:44.329Z,35.65
2022-10-12T04:46:11.303Z,35.15
2022-10-12T04:48:38.035Z,39.25
2022-10-12T04:51:05.490Z,38.40
2022-10-12T04:53:32.355Z,37.95
2022-10-12T04:56:02.717Z,35.40
2022-10-12T04:58:29.320Z,35.10
2022-10-12T05:00:55.917Z,38.13
2022-10-12T05:03:22.500Z,38.97
2022-10-12T05:05:49.106Z,35.03
2022-10-12T05:08:15.689Z,34.63
2022-10-12T05:10:42.313Z,32.45
2022-10-12T05:13:08.922Z,36.60
2022-10-12T05:15:35.567Z,36.08
2022-10-12T05:18:02.164Z,35.38
2022-10-12T05:20:28.752Z,35.13
2022-10-12T05:22:57.807Z,34.53
2022-10-12T05:25:24.516Z,35.70
2022-10-12T05:27:51.131Z,35.63
2022-10-12T05:30:17.745Z,35.60
2022-10-12T05:32:44.425Z,34.83
2022-10-12T05:35:11.345Z,36.58
2022-10-12T05:37:38.262Z,35.88
2022-10-12T05:40:05.939Z,32.75
2022-10-12T05:42:32.783Z,38.20
2022-10-12T05:44:59.369Z,35.17
2022-10-12T05:47:25.996Z,36.80
2022-10-12T05:49:52.632Z,36.95
2022-10-12T05:52:19.226Z,36.78
2022-10-12T05:54:45.865Z,34.92
2022-10-12T05:57:14.852Z,36.17
2022-10-12T05:59:42.376Z,37.22
2022-10-12T06:02:12.804Z,36.55
2022-10-12T06:04:39.477Z,39.22
2022-10-12T06:07:06.140Z,39.30
2022-10-12T06:09:33.460Z,37.75
2022-10-12T06:12:00.088Z,42.58
2022-10-12T06:14:26.791Z,39.08
2022-10-12T06:16:54.566Z,42.03
2022-10-12T06:19:21.496Z,36.10
2022-10-12T06:21:48.094Z,37.55
2022-10-12T06:24:14.651Z,39.30
2022-10-12T06:26:41.216Z,35.88
2022-10-12T06:29:08.186Z,36.53
2022-10-12T06:31:34.892Z,38.78
2022-10-12T06:34:01.542Z,35.90
2022-10-12T06:36:28.138Z,36.50
2022-10-12T06:38:55.128Z,36.13
2022-10-12T06:41:21.758Z,37.22
2022-10-12T06:43:48.391Z,37.30
2022-10-12T06:46:15.024Z,36.22
2022-10-12T06:48:41.585Z,37.33
2022-10-12T06:51:08.212Z,35.92
2022-10-12T06:53:35.092Z,34.38
2022-10-12T06:56:09.265Z,36.30
2022-10-12T06:58:35.866Z,34.10
2022-10-12T07:01:08.154Z,34.80
2022-10-12T07:03:34.834Z,32.53
2022-10-12T07:06:09.918Z,29.13
2022-10-12T07:08:36.622Z,27.80
2022-10-12T07:11:05.100Z,28.58
2022-10-12T07:13:32.103Z,28.88
2022-10-12T07:15:58.793Z,28.83
2022-10-12T07:18:25.548Z,27.95
2022-10-12T07:20:52.208Z,28.35
2022-10-12T07:23:18.854Z,25.67
2022-10-12T07:25:49.732Z,24.77
2022-10-12T07:28:17.129Z,23.73
2022-10-12T07:30:43.826Z,24.50
2022-10-12T07:33:10.545Z,22.20
2022-10-12T07:35:51.477Z,24.98
2022-10-12T07:38:23.785Z,27.02
2022-10-12T07:40:50.361Z,27.83
2022-10-12T07:43:17.132Z,25.35
2022-10-12T07:45:44.116Z,25.98
2022-10-12T07:48:10.885Z,27.25
2022-10-12T07:50:37.623Z,24.20
2022-10-12T07:53:04.231Z,25.75
2022-10-12T07:55:31.986Z,24.08
2022-10-12T07:57:59.768Z,27.20
2022-10-12T08:00:26.823Z,25.73
2022-10-12T08:02:53.478Z,25.02
2022-10-12T08:05:21.274Z,26.33
2022-10-12T08:07:49.134Z,27.38
2022-10-12T08:10:15.917Z,27.25
2022-10-12T08:12:42.496Z,26.73
2022-10-12T08:15:09.511Z,29.85
2022-10-12T08:17:36.287Z,29.45
2022-10-12T08:20:03.524Z,28.63
2022-10-12T08:22:30.165Z,28.55
2022-10-12T08:24:56.773Z,28.50
2022-10-12T08:27:23.365Z,30.73
2022-10-12T08:29:49.940Z,31.05
2022-10-12T08:32:16.616Z,29.70
2022-10-12T08:34:43.154Z,28.83
2022-10-12T08:37:09.743Z,30.60
2022-10-12T08:39:36.392Z,27.55
2022-10-12T08:42:25.932Z,31.75
2022-10-12T08:45:32.477Z,29.48
2022-10-12T08:48:01.793Z,31.50
2022-10-12T08:50:52.521Z,27.83
2022-10-12T08:53:32.957Z,31.67
2022-10-12T08:56:00.809Z,31.67
2022-10-12T08:58:37.133Z,31.05
2022-10-12T09:01:27.076Z,33.97
2022-10-12T09:04:17.296Z,31.00
2022-10-12T09:07:01.717Z,30.35
2022-10-12T09:09:54.300Z,31.38
2022-10-12T09:15:01.060Z,29.70
2022-10-12T09:17:31.788Z,29.15
2022-10-12T09:20:02.793Z,25.85
2022-10-12T09:22:30.184Z,25.42
2022-10-12T09:24:57.245Z,27.33
2022-10-12T09:27:23.911Z,26.67
2022-10-12T09:29:54.201Z,26.30
2022-10-12T09:33:00.671Z,25.83
2022-10-12T09:35:27.308Z,26.27
2022-10-12T09:37:54.121Z,24.90
2022-10-12T09:40:24.005Z,23.20
2022-10-12T09:42:50.884Z,27.77
2022-10-12T09:45:19.035Z,24.65
2022-10-12T09:50:57.926Z,23.23
2022-10-12T09:53:34.987Z,23.58
2022-10-12T09:56:05.821Z,24.08
2022-10-12T09:58:51.600Z,22.08
2022-10-12T10:01:22.782Z,22.98
2022-10-12T10:04:07.687Z,20.77
2022-10-12T10:06:35.799Z,20.75
2022-10-12T10:09:02.380Z,20.55
2022-10-12T10:11:31.498Z,18.45
2022-10-12T10:13:59.520Z,21.95
2022-10-12T10:16:26.964Z,17.83
2022-10-12T10:21:36.303Z,17.88
2022-10-12T10:24:04.583Z,19.23
2022-10-12T10:26:51.528Z,18.02
2022-10-12T10:32:26.423Z,17.30
2022-10-12T10:35:02.583Z,18.02
2022-10-12T10:37:29.528Z,17.73
2022-10-12T10:39:56.308Z,19.58
2022-10-12T10:42:28.378Z,18.52
2022-10-12T10:45:04.142Z,19.48
2022-10-12T10:47:32.014Z,17.85
2022-10-12T10:49:59.664Z,17.58
2022-10-12T10:52:32.253Z,18.42
2022-10-12T10:55:18.708Z,20.42
2022-10-12T10:57:50.141Z,18.73
2022-10-12T11:00:37.824Z,19.20
2022-10-12T11:03:26.621Z,19.02
2022-10-12T11:06:01.769Z,18.00
2022-10-12T11:08:30.027Z,18.58
2022-10-12T11:11:00.460Z,18.52
2022-10-12T11:13:52.177Z,17.75
2022-10-12T11:16:42.125Z,19.95
2022-10-12T11:19:36.632Z,20.98
2022-10-12T11:22:05.036Z,19.42
2022-10-12T11:24:35.848Z,20.70
2022-10-12T11:27:05.738Z,20.23
2022-10-12T11:29:32.365Z,21.67
2022-10-12T11:34:48.097Z,20.33
2022-10-12T11:37:20.356Z,19.13
2022-10-12T11:42:27.709Z,18.88
2022-10-12T11:44:54.347Z,17.15
2022-10-12T11:47:37.986Z,17.58
2022-10-12T11:50:26.968Z,17.70
2022-10-12T11:52:53.769Z,15.82
2022-10-12T11:55:47.442Z,15.50
2022-10-12T11:58:48.678Z,15.63
2022-10-12T12:07:38.413Z,13.45
2022-10-12T12:13:24.717Z,16.10
2022-10-12T12:18:29.763Z,16.80
2022-10-12T12:21:03.509Z,17.23
2022-10-12T12:23:37.179Z,15.90
2022-10-12T12:26:17.043Z,15.00
2022-10-12T12:28:46.913Z,14.98
2022-10-12T12:31:16.025Z,15.43
2022-10-12T12:33:45.999Z,14.13
2022-10-12T12:36:15.164Z,15.77
2022-10-12T12:41:28.033Z,16.13
2022-10-12T12:43:58.449Z,15.10
2022-10-12T12:46:27.152Z,17.35
2022-10-12T12:48:57.484Z,15.60
2022-10-12T12:51:26.987Z,15.23
2022-10-12T12:53:59.247Z,16.55
2022-10-12T12:57:05.830Z,15.18
2022-10-12T13:00:01.496Z,14.50
2022-10-12T13:02:54.923Z,17.13
2022-10-12T13:05:53.708Z,14.43
2022-10-12T13:08:50.086Z,16.00
2022-10-12T13:11:46.205Z,14.15
2022-10-12T13:14:37.929Z,15.10
2022-10-12T13:19:46.239Z,15.70
2022-10-12T13:22:31.899Z,15.80
2022-10-12T13:25:00.258Z,14.23
2022-10-12T13:27:47.571Z,14.93
2022-10-12T13:30:28.898Z,15.07
2022-10-12T13:36:08.273Z,15.32
2022-10-12T13:38:36.166Z,14.75
2022-10-12T13:41:13.157Z,17.27
2022-10-12T13:43:45.636Z,16.30
2022-10-12T13:46:33.155Z,14.48
2022-10-12T13:49:00.445Z,15.23
2022-10-12T13:51:28.840Z,17.25
2022-10-12T13:53:55.584Z,14.27
2022-10-12T13:56:24.799Z,16.70
2022-10-12T13:58:56.631Z,14.70
2022-10-12T14:01:23.319Z,15.00
2022-10-12T14:03:50.104Z,14.85
2022-10-12T14:06:33.492Z,15.27
2022-10-12T14:09:07.781Z,15.88
2022-10-12T14:11:34.480Z,14.88
2022-10-12T14:14:01.073Z,13.88
2022-10-12T14:16:27.786Z,15.07
2022-10-12T14:18:54.387Z,16.30
2022-10-12T14:21:23.452Z,15.40
2022-10-12T14:23:53.161Z,15.35
2022-10-12T14:26:23.230Z,15.45
2022-10-12T14:28:49.965Z,14.10
2022-10-12T14:31:17.037Z,15.70
2022-10-12T14:33:43.728Z,14.60
2022-10-12T14:36:27.481Z,15.93
2022-10-12T14:38:54.206Z,15.32
2022-10-12T14:41:44.679Z,17.98
2022-10-12T14:44:14.186Z,17.67
2022-10-12T14:46:50.274Z,16.90
2022-10-12T14:49:18.800Z,17.38
2022-10-12T14:51:45.511Z,17.60
2022-10-12T14:54:12.476Z,17.17
2022-10-12T14:56:39.481Z,20.60
2022-10-12T14:59:06.082Z,18.48
2022-10-12T15:01:32.896Z,15.80
2022-10-12T15:04:00.221Z,17.63
2022-10-12T15:06:26.896Z,16.42
2022-10-12T15:08:53.502Z,21.27
2022-10-12T15:11:20.189Z,24.42
2022-10-12T15:13:46.857Z,19.30
2022-10-12T15:16:20.297Z,18.98
2022-10-12T15:18:47.004Z,22.30
2022-10-12T15:21:13.685Z,19.15
2022-10-12T15:23:40.285Z,17.30
2022-10-12T15:26:06.921Z,18.63
2022-10-12T15:28:33.602Z,18.65
2022-10-12T15:31:16.968Z,16.17
2022-10-12T15:33:44.361Z,17.77
2022-10-12T15:36:11.084Z,19.35
2022-10-12T15:38:37.779Z,23.08
2022-10-12T15:41:04.406Z,21.40
2022-10-12T15:43:32.423Z,18.20
2022-10-12T15:46:00.419Z,18.55
2022-10-12T15:48:28.280Z,18.92
2022-10-12T15:50:54.936Z,19.90
2022-10-12T15:53:24.603Z,18.23
2022-10-12T15:55:53.099Z,18.63
2022-10-12T15:58:19.920Z,17.42
2022-10-12T16:00:46.731Z,18.20
2022-10-12T16:03:15.559Z,18.73
2022-10-12T16:05:42.195Z,17.38
2022-10-12T16:08:08.891Z,20.67
2022-10-12T16:10:38.185Z,17.90
2022-10-12T16:13:06.060Z,17.73
2022-10-12T16:15:33.253Z,21.65
2022-10-12T16:18:00.429Z,18.38
2022-10-12T16:20:27.939Z,19.67
2022-10-12T16:22:54.753Z,20.88
2022-10-12T16:25:23.787Z,20.10
2022-10-12T16:27:51.345Z,24.50
2022-10-12T16:30:18.033Z,20.27
2022-10-12T16:32:44.722Z,20.98
2022-10-12T16:35:11.502Z,26.35
2022-10-12T16:37:38.094Z,17.23
2022-10-12T16:40:05.328Z,19.60
2022-10-12T16:42:31.924Z,16.77
2022-10-12T16:44:58.556Z,16.90
2022-10-12T16:47:25.524Z,19.50
2022-10-12T16:49:53.727Z,17.73
2022-10-12T16:52:24.656Z,16.80
2022-10-12T16:54:52.999Z,17.23
2022-10-12T16:57:19.647Z,18.55
2022-10-12T16:59:47.029Z,17.58
2022-10-12T17:02:14.382Z,19.17
2022-10-12T17:04:41.122Z,17.10
2022-10-12T17:07:07.719Z,26.20
2022-10-12T17:09:34.319Z,16.33
2022-10-12T17:12:00.953Z,16.58
2022-10-12T17:14:29.491Z,17.58
2022-10-12T17:16:57.397Z,19.98
2022-10-12T17:19:28.501Z,20.27
2022-10-12T17:21:58.314Z,18.38
2022-10-12T17:24:26.255Z,19.35
2022-10-12T17:26:53.313Z,16.02
2022-10-12T17:29:20.291Z,18.58
2022-10-12T17:31:47.336Z,16.13
2022-10-12T17:34:20.927Z,16.80
2022-10-12T17:36:47.608Z,13.82
2022-10-12T17:39:14.370Z,17.35
2022-10-12T17:41:41.100Z,16.00
2022-10-12T17:44:07.835Z,17.10
2022-10-12T17:46:34.434Z,17.63
2022-10-12T17:49:02.557Z,16.50
2022-10-12T17:51:29.211Z,17.02
2022-10-12T17:53:55.800Z,17.73
2022-10-12T17:56:22.860Z,16.48
2022-10-12T17:58:54.333Z,14.63
2022-10-12T18:01:21.564Z,15.57
2022-10-12T18:03:48.384Z,17.80
2022-10-12T18:06:16.705Z,16.63
2022-10-12T18:08:43.768Z,13.43
2022-10-12T18:11:10.772Z,14.90
2022-10-12T18:13:37.950Z,14.70
2022-10-12T18:16:09.157Z,13.75
2022-10-12T18:18:35.803Z,12.57
2022-10-12T18:21:06.292Z,14.35
2022-10-12T18:23:32.921Z,13.18
2022-10-12T18:26:07.875Z,13.60
2022-10-12T18:28:34.910Z,15.35
2022-10-12T18:31:01.951Z,16.13
2022-10-12T18:33:28.537Z,15.93
2022-10-12T18:35:55.229Z,16.50
2022-10-12T18:38:21.890Z,14.50
2022-10-12T18:40:48.559Z,14.70
2022-10-12T18:43:15.212Z,14.77
2022-10-12T18:45:43.588Z,14.15
2022-10-12T18:48:11.284Z,13.05
2022-10-12T18:50:38.514Z,14.85
2022-10-12T18:53:05.225Z,15.02
2022-10-12T18:55:32.250Z,13.40
2022-10-12T18:57:58.864Z,16.33
2022-10-12T19:00:25.438Z,14.23
2022-10-12T19:02:52.120Z,14.27
2022-10-12T19:05:18.817Z,13.98
2022-10-12T19:07:45.455Z,14.25
2022-10-12T19:10:12.117Z,15.90
2022-10-12T19:12:43.404Z,12.23
2022-10-12T19:15:12.152Z,14.23
2022-10-12T19:17:38.752Z,14.40
2022-10-12T19:20:05.893Z,14.93
2022-10-12T19:22:33.069Z,14.98
2022-10-12T19:24:59.727Z,14.93
2022-10-12T19:27:26.409Z,15.77
2022-10-12T19:29:53.049Z,15.75
2022-10-12T19:32:20.114Z,17.63
2022-10-12T19:34:46.957Z,17.55
2022-10-12T19:37:13.874Z,16.83
2022-10-12T19:39:44.751Z,15.43
2022-10-12T19:42:11.379Z,17.15
2022-10-12T19:44:37.988Z,16.67
2022-10-12T19:47:04.659Z,16.90
2022-10-12T19:49:35.842Z,14.93
2022-10-12T19:52:03.450Z,16.83
2022-10-12T19:54:34.118Z,17.80
2022-10-12T19:57:02.606Z,17.00
2022-10-12T19:59:29.217Z,17.70
2022-10-12T20:01:55.879Z,17.70
2022-10-12T20:04:22.552Z,17.02
2022-10-12T20:06:49.169Z,16.52
2022-10-12T20:09:15.825Z,16.92
2022-10-12T20:11:42.502Z,19.48
2022-10-12T20:14:09.667Z,17.17
2022-10-12T20:16:36.713Z,18.00
2022-10-12T20:19:04.408Z,17.85
2022-10-12T20:21:31.171Z,17.92
2022-10-12T20:23:57.761Z,17.30
2022-10-12T20:26:25.062Z,19.20
2022-10-12T20:28:52.193Z,17.55
2022-10-12T20:31:22.884Z,16.92
2022-10-12T20:33:52.308Z,17.10
2022-10-12T20:36:21.141Z,18.83
2022-10-12T20:38:47.750Z,20.80
2022-10-12T20:41:17.049Z,18.40
2022-10-12T20:43:43.648Z,19.83
2022-10-12T20:46:13.797Z,16.48
2022-10-12T20:48:40.721Z,16.98
2022-10-12T20:51:08.038Z,19.63
2022-10-12T20:53:34.814Z,18.63
2022-10-12T20:56:06.000Z,19.08
2022-10-12T20:58:32.693Z,20.60
2022-10-12T21:01:07.696Z,20.10
2022-10-12T21:03:34.646Z,18.88
2022-10-12T21:06:17.161Z,21.20
2022-10-12T21:08:43.795Z,20.48
2022-10-12T21:11:10.676Z,18.80
2022-10-12T21:13:40.950Z,19.83
2022-10-12T21:16:08.887Z,19.85
2022-10-12T21:18:38.035Z,22.20
2022-10-12T21:21:12.144Z,21.05
2022-10-12T21:23:40.129Z,18.83
2022-10-12T21:26:12.897Z,19.25
2022-10-12T21:31:06.374Z,18.73
2022-10-12T21:33:34.115Z,21.98
2022-10-12T21:36:17.917Z,20.55
2022-10-12T21:38:44.763Z,19.58
2022-10-12T21:41:12.120Z,19.15
2022-10-12T21:43:39.430Z,20.40
2022-10-12T21:46:07.449Z,21.33
2022-10-12T21:48:34.227Z,19.35
2022-10-12T21:51:01.620Z,20.33
2022-10-12T21:53:28.258Z,20.45
2022-10-12T21:55:54.849Z,20.02
2022-10-12T21:58:21.520Z,19.50
2022-10-12T22:00:48.231Z,21.63
2022-10-12T22:03:14.849Z,19.90
2022-10-12T22:05:42.037Z,20.85
2022-10-12T22:08:08.908Z,21.63
2022-10-12T22:10:36.605Z,22.90
2022-10-12T22:13:03.212Z,20.50
2022-10-12T22:15:29.796Z,19.50
2022-10-12T22:17:56.396Z,20.52
2022-10-12T22:20:23.081Z,21.30
2022-10-12T22:22:49.663Z,22.25
2022-10-12T22:25:16.308Z,20.13
2022-10-12T22:27:43.278Z,20.77
2022-10-12T22:30:10.212Z,19.65
2022-10-12T22:32:36.847Z,22.20
2022-10-12T22:35:03.648Z,21.42
2022-10-12T22:37:30.241Z,21.02
2022-10-12T22:39:56.884Z,20.85
2022-10-12T22:42:23.493Z,19.88
2022-10-12T22:44:50.076Z,21.63
2022-10-12T22:47:16.652Z,21.52
2022-10-12T22:49:43.317Z,25.45
2022-10-12T22:52:09.918Z,21.48
2022-10-12T22:54:36.491Z,21.50
2022-10-12T22:57:03.100Z,22.33
2022-10-12T22:59:29.697Z,20.98
2022-10-12T23:01:56.267Z,21.02
2022-10-12T23:04:22.840Z,22.70
2022-10-12T23:06:49.395Z,21.30
2022-10-12T23:09:15.964Z,20.75
2022-10-12T23:11:42.553Z,19.70
2022-10-12T23:14:10.075Z,20.17
2022-10-12T23:16:36.700Z,22.55
2022-10-12T23:19:04.751Z,20.90
2022-10-12T23:21:32.260Z,21.42
2022-10-12T23:23:59.942Z,22.98
2022-10-12T23:26:26.770Z,22.42
2022-10-12T23:28:53.541Z,21.63
2022-10-12T23:31:21.803Z,21.33
2022-10-12T23:33:48.397Z,22.23
2022-10-12T23:36:16.603Z,22.40
2022-10-12T23:38:43.818Z,24.60
2022-10-12T23:41:10.721Z,23.73
2022-10-12T23:43:37.362Z,22.92
2022-10-12T23:46:04.710Z,22.13
2022-10-12T23:48:31.711Z,21.85
2022-10-12T23:50:58.473Z,21.95
2022-10-12T23:53:25.906Z,21.88
2022-10-12T23:55:52.694Z,22.05
2022-10-12T23:58:19.491Z,22.63
